createdAt,value
2023-05-05T00:01:48.507Z,1.47
2023-05-05T00:05:12.978Z,1.60
2023-05-05T00:08:38.007Z,1.87
2023-05-05T00:12:04.289Z,1.73
2023-05-05T00:15:30.079Z,1.43
2023-05-05T00:18:53.707Z,1.60
2023-05-05T00:22:18.116Z,1.80
2023-05-05T00:25:42.899Z,1.70
2023-05-05T00:29:08.047Z,1.83
2023-05-05T00:32:31.864Z,1.30
2023-05-05T00:35:55.671Z,1.80
2023-05-05T00:39:19.571Z,1.60
2023-05-05T00:42:44.917Z,1.40
2023-05-05T00:46:23.380Z,1.77
2023-05-05T00:49:47.675Z,1.80
2023-05-05T00:53:11.485Z,1.50
2023-05-05T00:56:35.110Z,1.70
2023-05-05T01:00:00.973Z,1.30
2023-05-05T01:03:26.943Z,1.87
2023-05-05T01:07:08.670Z,1.50
2023-05-05T01:10:41.786Z,1.57
2023-05-05T01:14:14.121Z,1.80
2023-05-05T01:17:43.527Z,1.87
2023-05-05T01:21:16.707Z,1.43
2023-05-05T01:25:00.741Z,1.90
2023-05-05T01:28:37.565Z,1.60
2023-05-05T01:32:09.018Z,1.57
2023-05-05T01:35:41.558Z,1.70
2023-05-05T01:39:09.532Z,1.77
2023-05-05T01:42:36.070Z,1.47
2023-05-05T01:46:01.977Z,1.57
2023-05-05T01:49:28.834Z,1.80
2023-05-05T01:52:56.334Z,1.30
2023-05-05T01:56:23.923Z,1.60
2023-05-05T01:59:47.736Z,1.70
2023-05-05T02:03:14.613Z,1.37
2023-05-05T02:06:41.915Z,1.23
2023-05-05T02:10:07.696Z,1.80
2023-05-05T02:13:33.309Z,1.43
2023-05-05T02:16:59.121Z,1.17
2023-05-05T02:20:25.258Z,1.57
2023-05-05T02:23:51.898Z,1.53
2023-05-05T02:27:18.719Z,1.43
2023-05-05T02:30:44.564Z,1.47
2023-05-05T02:34:09.951Z,1.60
2023-05-05T02:37:35.095Z,1.70
2023-05-05T02:41:03.734Z,1.50
2023-05-05T02:44:30.014Z,1.50
2023-05-05T02:47:53.931Z,1.60
2023-05-05T02:51:18.449Z,1.77
2023-05-05T02:54:42.452Z,1.50
2023-05-05T02:58:23.296Z,1.60
2023-05-05T03:02:01.717Z,1.53
2023-05-05T03:05:34.204Z,1.30
2023-05-05T03:09:07.289Z,1.50
2023-05-05T03:12:38.304Z,1.40
2023-05-05T03:16:19.179Z,1.47
2023-05-05T03:19:45.125Z,1.60
2023-05-05T03:23:09.804Z,1.40
2023-05-05T03:26:34.386Z,1.40
2023-05-05T03:29:58.611Z,1.60
2023-05-05T03:33:24.565Z,1.50
2023-05-05T03:36:48.493Z,1.40
2023-05-05T03:40:14.323Z,1.60
2023-05-05T03:43:39.309Z,1.53
2023-05-05T03:47:03.677Z,1.50
2023-05-05T03:50:31.476Z,1.40
2023-05-05T03:53:55.415Z,1.37
2023-05-05T03:57:19.614Z,1.73
2023-05-05T04:00:43.176Z,1.73
2023-05-05T04:04:09.391Z,2.33
2023-05-05T04:07:34.680Z,1.70
2023-05-05T04:10:59.190Z,1.30
2023-05-05T04:14:23.250Z,1.73
2023-05-05T04:17:47.599Z,1.60
2023-05-05T04:21:11.767Z,1.60
2023-05-05T04:24:38.412Z,1.70
2023-05-05T04:28:02.794Z,1.60
2023-05-05T04:31:28.087Z,1.90
2023-05-05T04:34:51.946Z,1.33
2023-05-05T04:38:16.163Z,1.60
2023-05-05T04:41:41.902Z,1.70
2023-05-05T04:45:07.472Z,1.50
2023-05-05T04:48:31.597Z,1.80
2023-05-05T04:51:55.604Z,2.00
2023-05-05T04:55:19.867Z,1.90
2023-05-05T04:58:45.168Z,2.00
2023-05-05T05:02:09.013Z,1.87
2023-05-05T05:05:32.996Z,1.87
2023-05-05T05:08:56.900Z,1.60
2023-05-05T05:12:21.014Z,1.63
2023-05-05T05:15:47.145Z,1.93
2023-05-05T05:19:11.068Z,2.20
2023-05-05T05:22:38.175Z,2.10
2023-05-05T05:26:05.198Z,2.10
2023-05-05T05:29:29.647Z,2.40
2023-05-05T05:32:56.192Z,2.50
2023-05-05T05:36:20.110Z,1.97
2023-05-05T05:39:44.009Z,2.00
2023-05-05T05:43:08.993Z,2.10
2023-05-05T05:46:34.344Z,1.80
2023-05-05T05:49:59.583Z,1.80
2023-05-05T05:53:24.168Z,1.90
2023-05-05T05:56:49.604Z,2.10
2023-05-05T06:00:15.769Z,2.90
2023-05-05T06:03:46.138Z,2.63
2023-05-05T06:07:11.525Z,2.07
2023-05-05T06:10:35.543Z,2.30
2023-05-05T06:14:04.298Z,1.63
2023-05-05T06:17:28.101Z,2.10
2023-05-05T06:20:53.699Z,2.10
2023-05-05T06:24:23.105Z,2.33
2023-05-05T06:27:47.137Z,2.10
2023-05-05T06:31:12.825Z,1.83
2023-05-05T06:34:36.718Z,1.77
2023-05-05T06:38:00.506Z,2.00
2023-05-05T06:41:25.944Z,2.07
2023-05-05T06:44:49.795Z,2.20
2023-05-05T06:48:13.859Z,2.10
2023-05-05T06:51:37.708Z,1.87
2023-05-05T06:55:01.555Z,2.50
2023-05-05T06:58:27.092Z,2.10
2023-05-05T07:01:51.727Z,1.90
2023-05-05T07:05:16.399Z,1.97
2023-05-05T07:08:40.375Z,1.90
2023-05-05T07:12:04.622Z,2.13
2023-05-05T07:15:30.123Z,1.80
2023-05-05T07:19:18.966Z,1.57
2023-05-05T07:22:42.470Z,1.80
2023-05-05T07:26:06.521Z,1.90
2023-05-05T07:29:30.435Z,1.77
2023-05-05T07:32:56.707Z,2.00
2023-05-05T07:36:20.563Z,2.00
2023-05-05T07:39:44.402Z,1.70
2023-05-05T07:43:08.272Z,1.70
2023-05-05T07:46:32.217Z,1.90
2023-05-05T07:49:57.566Z,1.60
2023-05-05T07:53:21.420Z,2.00
2023-05-05T07:56:45.392Z,1.90
2023-05-05T08:00:13.371Z,1.77
2023-05-05T08:03:37.593Z,1.37
2023-05-05T08:07:03.148Z,1.17
2023-05-05T08:10:27.026Z,1.17
2023-05-05T08:13:50.979Z,1.20
2023-05-05T08:17:14.467Z,1.30
2023-05-05T08:20:38.407Z,1.33
2023-05-05T08:24:03.562Z,1.20
2023-05-05T08:27:27.362Z,1.17
2023-05-05T08:30:51.798Z,1.33
2023-05-05T08:34:15.907Z,1.00
2023-05-05T08:37:39.969Z,1.00
2023-05-05T08:41:04.765Z,1.40
2023-05-05T08:44:28.969Z,1.10
2023-05-05T08:47:52.879Z,1.10
2023-05-05T08:51:20.148Z,1.10
2023-05-05T08:54:51.985Z,1.30
2023-05-05T08:58:18.556Z,1.00
2023-05-05T09:01:43.819Z,1.30
2023-05-05T09:05:09.080Z,1.00
2023-05-05T09:08:34.276Z,0.90
2023-05-05T09:11:59.908Z,1.10
2023-05-05T09:15:25.225Z,1.23
2023-05-05T09:18:49.092Z,1.27
2023-05-05T09:22:12.951Z,1.30
2023-05-05T09:25:37.023Z,1.10
2023-05-05T09:29:01.671Z,1.10
2023-05-05T09:32:29.137Z,1.30
2023-05-05T09:35:55.812Z,1.10
2023-05-05T09:39:20.865Z,1.30
2023-05-05T09:42:45.285Z,1.40
2023-05-05T09:46:09.568Z,1.30
2023-05-05T09:49:36.186Z,1.40
2023-05-05T09:53:03.476Z,1.20
2023-05-05T09:56:39.509Z,1.40
2023-05-05T10:00:05.767Z,1.00
2023-05-05T10:03:29.844Z,1.20
2023-05-05T10:06:55.841Z,1.30
2023-05-05T10:10:19.923Z,1.10
2023-05-05T10:13:43.944Z,0.90
2023-05-05T10:17:10.517Z,0.97
2023-05-05T10:20:37.253Z,1.30
2023-05-05T10:24:08.454Z,1.00
2023-05-05T10:27:40.997Z,1.07
2023-05-05T10:31:24.539Z,0.93
2023-05-05T10:34:55.178Z,0.90
2023-05-05T10:38:19.428Z,1.00
2023-05-05T10:41:45.187Z,1.20
2023-05-05T10:45:10.450Z,1.10
2023-05-05T10:48:39.165Z,1.10
2023-05-05T10:52:14.236Z,1.00
2023-05-05T10:55:45.467Z,1.00
2023-05-05T10:59:44.041Z,1.20
2023-05-05T11:03:24.419Z,0.93
2023-05-05T11:07:23.419Z,0.80
2023-05-05T11:10:47.245Z,0.90
2023-05-05T11:14:22.947Z,1.00
2023-05-05T11:17:49.106Z,1.10
2023-05-05T11:21:18.371Z,0.90
2023-05-05T11:24:42.312Z,1.00
2023-05-05T11:28:06.606Z,1.00
2023-05-05T11:31:31.630Z,0.93
2023-05-05T11:34:57.803Z,1.00
2023-05-05T11:38:25.748Z,1.00
2023-05-05T11:42:23.377Z,0.90
2023-05-05T11:45:47.557Z,1.33
2023-05-05T11:49:11.416Z,1.20
2023-05-05T11:52:36.403Z,1.20
2023-05-05T11:56:08.721Z,1.10
2023-05-05T11:59:33.920Z,1.30
2023-05-05T12:02:58.912Z,1.20
2023-05-05T12:06:23.036Z,1.00
2023-05-05T12:09:50.209Z,1.10
2023-05-05T12:13:20.566Z,0.97
2023-05-05T12:16:55.752Z,0.90
2023-05-05T12:20:29.942Z,1.00
2023-05-05T12:23:53.790Z,1.43
2023-05-05T12:27:18.696Z,1.10
2023-05-05T12:30:42.622Z,0.90
2023-05-05T12:34:07.786Z,0.93
2023-05-05T12:37:31.880Z,1.00
2023-05-05T12:40:55.879Z,1.10
2023-05-05T12:44:21.136Z,1.10
2023-05-05T12:47:45.202Z,1.30
2023-05-05T12:51:20.567Z,0.93
2023-05-05T12:54:55.160Z,1.00
2023-05-05T12:58:19.034Z,1.00
2023-05-05T13:01:53.849Z,1.00
2023-05-05T13:05:29.861Z,1.03
2023-05-05T13:08:53.762Z,1.20
2023-05-05T13:12:18.705Z,1.20
2023-05-05T13:15:42.585Z,1.00
2023-05-05T13:19:07.852Z,1.10
2023-05-05T13:22:31.611Z,1.00
2023-05-05T13:25:55.495Z,1.10
2023-05-05T13:29:19.554Z,1.10
2023-05-05T13:32:43.551Z,1.40
2023-05-05T13:36:09.186Z,1.00
2023-05-05T13:39:33.155Z,1.10
2023-05-05T13:42:56.988Z,1.10
2023-05-05T13:46:20.558Z,1.10
2023-05-05T13:49:44.417Z,1.10
2023-05-05T13:53:09.832Z,1.30
2023-05-05T13:56:34.168Z,1.03
2023-05-05T13:59:58.140Z,1.00
2023-05-05T14:03:21.813Z,0.97
2023-05-05T14:06:45.432Z,1.00
2023-05-05T14:10:11.304Z,1.10
2023-05-05T14:13:35.243Z,1.30
2023-05-05T14:16:59.084Z,1.00
2023-05-05T14:20:23.090Z,1.10
2023-05-05T14:23:46.631Z,1.00
2023-05-05T14:27:11.889Z,1.03
2023-05-05T14:30:35.821Z,1.10
2023-05-05T14:33:59.616Z,1.10
2023-05-05T14:37:23.130Z,1.10
2023-05-05T14:40:48.109Z,1.00
2023-05-05T14:44:13.319Z,1.20
2023-05-05T14:47:37.185Z,0.90
2023-05-05T14:51:01.119Z,0.90
2023-05-05T14:54:28.823Z,1.50
2023-05-05T14:57:52.952Z,1.00
2023-05-05T15:01:18.270Z,0.93
2023-05-05T15:04:42.154Z,0.87
2023-05-05T15:08:06.437Z,0.90
2023-05-05T15:11:30.427Z,0.70
2023-05-05T15:14:55.324Z,0.93
2023-05-05T15:18:20.636Z,0.90
2023-05-05T15:21:44.466Z,1.10
2023-05-05T15:25:12.376Z,0.90
2023-05-05T15:28:36.159Z,1.00
2023-05-05T15:32:00.081Z,1.10
2023-05-05T15:35:25.839Z,1.00
2023-05-05T15:38:50.198Z,0.90
2023-05-05T15:42:14.049Z,0.90
2023-05-05T15:45:38.424Z,0.83
2023-05-05T15:49:02.287Z,1.10
2023-05-05T15:52:27.141Z,1.07
2023-05-05T15:55:51.045Z,0.90
2023-05-05T15:59:14.917Z,1.00
2023-05-05T16:02:38.918Z,1.10
2023-05-05T16:06:02.900Z,0.90
2023-05-05T16:09:28.177Z,1.07
2023-05-05T16:12:52.049Z,1.20
2023-05-05T16:16:16.604Z,1.10
2023-05-05T16:19:40.603Z,1.03
2023-05-05T16:23:04.425Z,1.60
2023-05-05T16:26:30.110Z,1.20
2023-05-05T16:29:54.248Z,1.47
2023-05-05T16:33:18.150Z,1.40
2023-05-05T16:36:43.663Z,1.60
2023-05-05T16:40:09.367Z,1.40
2023-05-05T16:43:34.648Z,1.90
2023-05-05T16:46:58.555Z,1.70
2023-05-05T16:50:22.562Z,1.90
2023-05-05T16:53:48.833Z,2.10
2023-05-05T16:57:13.656Z,1.93
2023-05-05T17:00:38.919Z,2.03
2023-05-05T17:04:02.856Z,1.33
2023-05-05T17:07:26.741Z,1.53
2023-05-05T17:10:50.442Z,1.50
2023-05-05T17:14:14.153Z,1.50
2023-05-05T17:17:41.522Z,1.53
2023-05-05T17:21:07.298Z,1.40
2023-05-05T17:24:30.920Z,1.40
2023-05-05T17:27:54.852Z,1.40
2023-05-05T17:31:18.721Z,1.60
2023-05-05T17:34:43.899Z,1.13
2023-05-05T17:38:07.812Z,1.40
2023-05-05T17:41:31.321Z,1.30
2023-05-05T17:44:55.180Z,1.40
2023-05-05T17:48:19.008Z,1.17
2023-05-05T17:51:44.200Z,1.30
2023-05-05T17:55:09.269Z,1.10
2023-05-05T17:58:33.950Z,1.30
2023-05-05T18:01:57.845Z,1.10
2023-05-05T18:05:21.795Z,1.20
2023-05-05T18:08:47.076Z,1.17
2023-05-05T18:12:11.172Z,1.20
2023-05-05T18:15:35.124Z,1.10
2023-05-05T18:18:58.988Z,1.20
2023-05-05T18:22:22.914Z,1.40
2023-05-05T18:25:48.128Z,1.60
2023-05-05T18:29:11.894Z,1.20
2023-05-05T18:32:35.839Z,1.30
2023-05-05T18:35:59.846Z,1.23
2023-05-05T18:39:23.789Z,1.27
2023-05-05T18:42:49.185Z,1.40
2023-05-05T18:46:13.106Z,1.50
2023-05-05T18:49:37.419Z,1.53
2023-05-05T18:53:01.658Z,1.20
2023-05-05T18:56:25.624Z,1.43
2023-05-05T18:59:50.863Z,1.17
2023-05-05T19:03:14.781Z,1.30
2023-05-05T19:06:40.156Z,1.20
2023-05-05T19:10:05.103Z,1.20
2023-05-05T19:13:29.318Z,1.40
2023-05-05T19:16:56.338Z,1.83
2023-05-05T19:20:20.686Z,1.10
2023-05-05T19:23:45.463Z,1.30
2023-05-05T19:27:15.446Z,1.20
2023-05-05T19:30:40.914Z,1.50
2023-05-05T19:34:07.280Z,1.37
2023-05-05T19:37:31.669Z,1.40
2023-05-05T19:40:55.606Z,1.33
2023-05-05T19:44:22.042Z,1.17
2023-05-05T19:47:46.210Z,1.23
2023-05-05T19:51:11.486Z,1.47
2023-05-05T19:54:36.147Z,1.40
2023-05-05T19:57:59.963Z,1.53
2023-05-05T20:01:24.204Z,1.37
2023-05-05T20:04:48.085Z,1.40
2023-05-05T20:08:13.266Z,1.23
2023-05-05T20:11:37.766Z,1.30
2023-05-05T20:15:01.680Z,1.57
2023-05-05T20:18:25.717Z,1.60
2023-05-05T20:21:49.511Z,1.80
2023-05-05T20:25:16.137Z,1.53
2023-05-05T20:28:41.833Z,1.70
2023-05-05T20:32:07.581Z,1.90
2023-05-05T20:35:31.398Z,1.73
2023-05-05T20:38:55.235Z,1.90
2023-05-05T20:42:20.368Z,1.80
2023-05-05T20:45:44.268Z,1.60
2023-05-05T20:49:08.112Z,1.70
2023-05-05T20:52:31.932Z,1.73
2023-05-05T20:55:55.930Z,2.00
2023-05-05T20:59:21.208Z,1.50
2023-05-05T21:02:45.293Z,1.30
2023-05-05T21:06:09.294Z,1.60
2023-05-05T21:09:35.224Z,1.30
2023-05-05T21:12:59.205Z,1.47
2023-05-05T21:16:24.619Z,1.57
2023-05-05T21:19:48.437Z,1.03
2023-05-05T21:23:12.538Z,1.40
2023-05-05T21:26:36.329Z,1.10
2023-05-05T21:30:00.171Z,1.30
2023-05-05T21:33:25.386Z,0.93
2023-05-05T21:36:49.239Z,1.30
2023-05-05T21:40:16.194Z,1.00
2023-05-05T21:43:40.041Z,1.10
2023-05-05T21:47:05.352Z,1.10
2023-05-05T21:50:30.623Z,1.00
2023-05-05T21:53:54.556Z,1.23
2023-05-05T21:57:18.458Z,1.40
2023-05-05T22:00:42.698Z,1.20
2023-05-05T22:04:07.440Z,1.20
2023-05-05T22:07:33.148Z,0.90
2023-05-05T22:10:57.106Z,1.20
2023-05-05T22:14:21.438Z,1.23
2023-05-05T22:17:45.347Z,1.10
2023-05-05T22:21:09.309Z,1.30
2023-05-05T22:24:34.553Z,1.10
2023-05-05T22:27:58.467Z,1.10
2023-05-05T22:31:22.376Z,1.20
2023-05-05T22:34:46.229Z,1.20
2023-05-05T22:38:10.357Z,1.23
2023-05-05T22:41:35.661Z,1.10
2023-05-05T22:44:59.185Z,1.10
2023-05-05T22:48:23.000Z,1.27
2023-05-05T22:51:47.356Z,1.13
2023-05-05T22:55:12.714Z,1.30
2023-05-05T22:58:37.945Z,1.13
2023-05-05T23:02:01.967Z,1.10
2023-05-05T23:05:25.974Z,1.10
2023-05-05T23:08:49.936Z,1.20
2023-05-05T23:12:13.800Z,1.00
2023-05-05T23:15:39.074Z,1.10
2023-05-05T23:19:02.957Z,0.80
2023-05-05T23:22:26.476Z,0.90
2023-05-05T23:25:51.255Z,0.90
2023-05-05T23:29:15.000Z,1.00
2023-05-05T23:32:40.242Z,1.10
2023-05-05T23:36:04.083Z,1.03
2023-05-05T23:39:27.834Z,1.10
2023-05-05T23:42:51.660Z,0.90
2023-05-05T23:46:15.064Z,1.23
2023-05-05T23:49:40.252Z,1.10
2023-05-05T23:53:04.077Z,1.00
2023-05-05T23:56:27.839Z,1.00
2023-05-05T23:59:51.693Z,1.30
